sensor_id;sensor_type;location;lat;lon;timestamp;P1;durP1;ratioP1;P2;durP2;ratioP2
3259;SDS011;68938;48.150;14.004;2024-01-30T00:01:06;40.77;;;23.70;;
3259;SDS011;68938;48.150;14.004;2024-01-30T00:03:33;34.77;;;23.63;;
3259;SDS011;68938;48.150;14.004;2024-01-30T00:06:00;34.10;;;23.47;;
3259;SDS011;68938;48.150;14.004;2024-01-30T00:08:27;37.67;;;25.80;;
3259;SDS011;68938;48.150;14.004;2024-01-30T00:10:54;34.27;;;24.53;;
3259;SDS011;68938;48.150;14.004;2024-01-30T00:13:21;35.33;;;24.67;;
3259;SDS011;68938;48.150;14.004;2024-01-30T00:15:48;36.40;;;24.87;;
3259;SDS011;68938;48.150;14.004;2024-01-30T00:18:15;36.03;;;24.07;;
3259;SDS011;68938;48.150;14.004;2024-01-30T00:20:42;36.03;;;24.47;;
3259;SDS011;68938;48.150;14.004;2024-01-30T00:23:08;38.20;;;23.20;;
3259;SDS011;68938;48.150;14.004;2024-01-30T00:25:35;33.50;;;23.53;;
3259;SDS011;68938;48.150;14.004;2024-01-30T00:28:02;37.53;;;22.10;;
3259;SDS011;68938;48.150;14.004;2024-01-30T00:30:30;31.10;;;22.57;;
3259;SDS011;68938;48.150;14.004;2024-01-30T00:32:57;39.20;;;25.37;;
3259;SDS011;68938;48.150;14.004;2024-01-30T00:35:24;40.77;;;24.97;;
3259;SDS011;68938;48.150;14.004;2024-01-30T00:37:50;36.87;;;25.03;;
3259;SDS011;68938;48.150;14.004;2024-01-30T00:40:17;35.43;;;24.27;;
3259;SDS011;68938;48.150;14.004;2024-01-30T00:42:44;35.33;;;25.53;;
3259;SDS011;68938;48.150;14.004;2024-01-30T00:45:13;32.03;;;23.77;;
3259;SDS011;68938;48.150;14.004;2024-01-30T00:47:41;36.83;;;21.40;;
3259;SDS011;68938;48.150;14.004;2024-01-30T00:50:09;35.33;;;23.53;;
3259;SDS011;68938;48.150;14.004;2024-01-30T00:52:36;37.50;;;24.03;;
3259;SDS011;68938;48.150;14.004;2024-01-30T00:55:03;34.10;;;21.80;;
3259;SDS011;68938;48.150;14.004;2024-01-30T00:57:31;34.20;;;23.40;;
3259;SDS011;68938;48.150;14.004;2024-01-30T00:59:58;29.33;;;23.10;;
3259;SDS011;68938;48.150;14.004;2024-01-30T01:02:25;32.57;;;22.50;;
3259;SDS011;68938;48.150;14.004;2024-01-30T01:04:52;42.30;;;23.97;;
3259;SDS011;68938;48.150;14.004;2024-01-30T01:07:19;31.97;;;23.43;;
3259;SDS011;68938;48.150;14.004;2024-01-30T01:09:46;31.30;;;22.70;;
3259;SDS011;68938;48.150;14.004;2024-01-30T01:12:13;36.40;;;24.10;;
3259;SDS011;68938;48.150;14.004;2024-01-30T01:14:40;36.37;;;22.67;;
3259;SDS011;68938;48.150;14.004;2024-01-30T01:17:07;30.90;;;23.33;;
3259;SDS011;68938;48.150;14.004;2024-01-30T01:19:34;30.80;;;23.47;;
3259;SDS011;68938;48.150;14.004;2024-01-30T01:22:01;33.20;;;24.20;;
3259;SDS011;68938;48.150;14.004;2024-01-30T01:24:29;34.60;;;22.10;;
3259;SDS011;68938;48.150;14.004;2024-01-30T01:26:59;28.57;;;21.43;;
3259;SDS011;68938;48.150;14.004;2024-01-30T01:29:26;30.43;;;23.57;;
3259;SDS011;68938;48.150;14.004;2024-01-30T01:31:53;40.00;;;23.70;;
3259;SDS011;68938;48.150;14.004;2024-01-30T01:34:21;34.93;;;21.77;;
3259;SDS011;68938;48.150;14.004;2024-01-30T01:36:50;38.30;;;23.63;;
3259;SDS011;68938;48.150;14.004;2024-01-30T01:39:17;33.40;;;23.37;;
3259;SDS011;68938;48.150;14.004;2024-01-30T01:41:44;35.20;;;23.33;;
3259;SDS011;68938;48.150;14.004;2024-01-30T01:44:11;33.10;;;24.00;;
3259;SDS011;68938;48.150;14.004;2024-01-30T01:46:38;30.87;;;22.57;;
3259;SDS011;68938;48.150;14.004;2024-01-30T01:49:05;32.43;;;22.43;;
3259;SDS011;68938;48.150;14.004;2024-01-30T01:51:34;40.17;;;23.13;;
3259;SDS011;68938;48.150;14.004;2024-01-30T01:54:03;27.90;;;20.53;;
3259;SDS011;68938;48.150;14.004;2024-01-30T01:56:31;34.80;;;25.40;;
3259;SDS011;68938;48.150;14.004;2024-01-30T01:59:03;29.43;;;22.07;;
3259;SDS011;68938;48.150;14.004;2024-01-30T02:01:33;38.93;;;21.83;;
3259;SDS011;68938;48.150;14.004;2024-01-30T02:04:02;35.83;;;24.13;;
3259;SDS011;68938;48.150;14.004;2024-01-30T02:06:31;28.30;;;22.10;;
3259;SDS011;68938;48.150;14.004;2024-01-30T02:08:58;35.23;;;23.33;;
3259;SDS011;68938;48.150;14.004;2024-01-30T02:11:25;31.93;;;22.70;;
3259;SDS011;68938;48.150;14.004;2024-01-30T02:13:53;36.23;;;22.07;;
3259;SDS011;68938;48.150;14.004;2024-01-30T02:16:20;32.60;;;22.40;;
3259;SDS011;68938;48.150;14.004;2024-01-30T02:18:47;38.40;;;25.03;;
3259;SDS011;68938;48.150;14.004;2024-01-30T02:21:18;41.87;;;23.30;;
3259;SDS011;68938;48.150;14.004;2024-01-30T02:23:48;40.43;;;23.17;;
3259;SDS011;68938;48.150;14.004;2024-01-30T02:26:17;28.90;;;21.70;;
3259;SDS011;68938;48.150;14.004;2024-01-30T02:28:44;34.73;;;25.60;;
3259;SDS011;68938;48.150;14.004;2024-01-30T02:31:10;34.97;;;22.67;;
3259;SDS011;68938;48.150;14.004;2024-01-30T02:33:38;42.43;;;22.90;;
3259;SDS011;68938;48.150;14.004;2024-01-30T02:36:04;27.57;;;20.87;;
3259;SDS011;68938;48.150;14.004;2024-01-30T02:38:32;33.07;;;22.90;;
3259;SDS011;68938;48.150;14.004;2024-01-30T02:40:59;35.27;;;22.80;;
3259;SDS011;68938;48.150;14.004;2024-01-30T02:43:25;35.17;;;24.53;;
3259;SDS011;68938;48.150;14.004;2024-01-30T02:45:52;28.27;;;20.90;;
3259;SDS011;68938;48.150;14.004;2024-01-30T02:48:19;33.73;;;24.63;;
3259;SDS011;68938;48.150;14.004;2024-01-30T02:50:46;36.40;;;22.47;;
3259;SDS011;68938;48.150;14.004;2024-01-30T02:53:13;33.60;;;22.60;;
3259;SDS011;68938;48.150;14.004;2024-01-30T02:55:40;37.33;;;25.10;;
3259;SDS011;68938;48.150;14.004;2024-01-30T02:58:07;32.10;;;23.17;;
3259;SDS011;68938;48.150;14.004;2024-01-30T03:00:34;36.10;;;23.57;;
3259;SDS011;68938;48.150;14.004;2024-01-30T03:03:01;39.67;;;24.97;;
3259;SDS011;68938;48.150;14.004;2024-01-30T03:05:28;39.27;;;25.63;;
3259;SDS011;68938;48.150;14.004;2024-01-30T03:07:55;46.63;;;25.60;;
3259;SDS011;68938;48.150;14.004;2024-01-30T03:10:22;38.73;;;26.20;;
3259;SDS011;68938;48.150;14.004;2024-01-30T03:12:49;78.53;;;32.37;;
3259;SDS011;68938;48.150;14.004;2024-01-30T03:15:16;67.87;;;32.43;;
3259;SDS011;68938;48.150;14.004;2024-01-30T03:17:43;54.70;;;29.77;;
3259;SDS011;68938;48.150;14.004;2024-01-30T03:20:10;54.40;;;30.67;;
3259;SDS011;68938;48.150;14.004;2024-01-30T03:22:37;63.40;;;33.83;;
3259;SDS011;68938;48.150;14.004;2024-01-30T03:25:04;48.07;;;28.10;;
3259;SDS011;68938;48.150;14.004;2024-01-30T03:27:32;49.07;;;28.70;;
3259;SDS011;68938;48.150;14.004;2024-01-30T03:29:58;50.30;;;29.67;;
3259;SDS011;68938;48.150;14.004;2024-01-30T03:32:25;54.87;;;29.47;;
3259;SDS011;68938;48.150;14.004;2024-01-30T03:34:52;52.00;;;29.93;;
3259;SDS011;68938;48.150;14.004;2024-01-30T03:37:20;60.07;;;31.77;;
3259;SDS011;68938;48.150;14.004;2024-01-30T03:39:47;53.30;;;31.50;;
3259;SDS011;68938;48.150;14.004;2024-01-30T03:42:14;51.43;;;31.87;;
3259;SDS011;68938;48.150;14.004;2024-01-30T03:44:41;50.17;;;31.00;;
3259;SDS011;68938;48.150;14.004;2024-01-30T03:47:09;48.87;;;30.70;;
3259;SDS011;68938;48.150;14.004;2024-01-30T03:49:36;57.10;;;31.93;;
3259;SDS011;68938;48.150;14.004;2024-01-30T03:52:03;57.93;;;30.67;;
3259;SDS011;68938;48.150;14.004;2024-01-30T03:54:30;68.10;;;35.20;;
3259;SDS011;68938;48.150;14.004;2024-01-30T03:56:57;60.70;;;35.37;;
3259;SDS011;68938;48.150;14.004;2024-01-30T03:59:23;66.00;;;34.43;;
3259;SDS011;68938;48.150;14.004;2024-01-30T04:01:51;61.63;;;32.77;;
3259;SDS011;68938;48.150;14.004;2024-01-30T04:04:18;55.37;;;35.70;;
3259;SDS011;68938;48.150;14.004;2024-01-30T04:06:46;60.27;;;35.40;;
3259;SDS011;68938;48.150;14.004;2024-01-30T04:09:13;58.80;;;34.40;;
3259;SDS011;68938;48.150;14.004;2024-01-30T04:11:40;64.73;;;35.10;;
3259;SDS011;68938;48.150;14.004;2024-01-30T04:14:08;65.90;;;37.97;;
3259;SDS011;68938;48.150;14.004;2024-01-30T04:16:35;68.83;;;37.00;;
3259;SDS011;68938;48.150;14.004;2024-01-30T04:19:02;72.57;;;38.20;;
3259;SDS011;68938;48.150;14.004;2024-01-30T04:21:29;66.90;;;36.40;;
3259;SDS011;68938;48.150;14.004;2024-01-30T04:23:56;76.43;;;41.00;;
3259;SDS011;68938;48.150;14.004;2024-01-30T04:26:24;65.17;;;38.70;;
3259;SDS011;68938;48.150;14.004;2024-01-30T04:28:51;67.67;;;35.50;;
3259;SDS011;68938;48.150;14.004;2024-01-30T04:31:18;69.80;;;39.77;;
3259;SDS011;68938;48.150;14.004;2024-01-30T04:33:45;81.53;;;39.37;;
3259;SDS011;68938;48.150;14.004;2024-01-30T04:36:12;80.03;;;41.50;;
3259;SDS011;68938;48.150;14.004;2024-01-30T04:38:39;66.87;;;40.07;;
3259;SDS011;68938;48.150;14.004;2024-01-30T04:41:06;64.20;;;35.93;;
3259;SDS011;68938;48.150;14.004;2024-01-30T04:43:33;66.57;;;41.40;;
3259;SDS011;68938;48.150;14.004;2024-01-30T04:46:01;69.10;;;41.07;;
3259;SDS011;68938;48.150;14.004;2024-01-30T04:48:27;68.57;;;44.97;;
3259;SDS011;68938;48.150;14.004;2024-01-30T04:50:55;80.40;;;43.50;;
3259;SDS011;68938;48.150;14.004;2024-01-30T04:53:22;72.13;;;45.20;;
3259;SDS011;68938;48.150;14.004;2024-01-30T04:55:48;70.00;;;42.43;;
3259;SDS011;68938;48.150;14.004;2024-01-30T04:58:15;65.13;;;40.50;;
3259;SDS011;68938;48.150;14.004;2024-01-30T05:00:42;79.13;;;43.97;;
3259;SDS011;68938;48.150;14.004;2024-01-30T05:03:10;73.33;;;46.50;;
3259;SDS011;68938;48.150;14.004;2024-01-30T05:05:37;99.63;;;46.97;;
3259;SDS011;68938;48.150;14.004;2024-01-30T05:08:04;86.17;;;45.03;;
3259;SDS011;68938;48.150;14.004;2024-01-30T05:10:31;75.90;;;42.23;;
3259;SDS011;68938;48.150;14.004;2024-01-30T05:12:58;72.90;;;41.67;;
3259;SDS011;68938;48.150;14.004;2024-01-30T05:15:24;75.43;;;44.70;;
3259;SDS011;68938;48.150;14.004;2024-01-30T05:17:51;83.70;;;46.50;;
3259;SDS011;68938;48.150;14.004;2024-01-30T05:20:19;77.90;;;42.40;;
3259;SDS011;68938;48.150;14.004;2024-01-30T05:22:46;76.20;;;45.00;;
3259;SDS011;68938;48.150;14.004;2024-01-30T05:25:13;64.77;;;37.93;;
3259;SDS011;68938;48.150;14.004;2024-01-30T05:27:40;84.50;;;48.93;;
3259;SDS011;68938;48.150;14.004;2024-01-30T05:30:07;74.00;;;39.90;;
3259;SDS011;68938;48.150;14.004;2024-01-30T05:32:35;271.93;;;109.77;;
3259;SDS011;68938;48.150;14.004;2024-01-30T05:35:02;200.43;;;90.77;;
3259;SDS011;68938;48.150;14.004;2024-01-30T05:37:29;151.70;;;78.47;;
3259;SDS011;68938;48.150;14.004;2024-01-30T05:39:56;94.70;;;47.10;;
3259;SDS011;68938;48.150;14.004;2024-01-30T05:42:23;84.57;;;43.63;;
3259;SDS011;68938;48.150;14.004;2024-01-30T05:44:50;101.13;;;51.00;;
3259;SDS011;68938;48.150;14.004;2024-01-30T05:47:17;126.03;;;51.77;;
3259;SDS011;68938;48.150;14.004;2024-01-30T05:49:44;75.03;;;45.10;;
3259;SDS011;68938;48.150;14.004;2024-01-30T05:52:11;80.77;;;44.10;;
3259;SDS011;68938;48.150;14.004;2024-01-30T05:54:38;92.87;;;47.33;;
3259;SDS011;68938;48.150;14.004;2024-01-30T05:57:04;109.47;;;55.17;;
3259;SDS011;68938;48.150;14.004;2024-01-30T05:59:32;85.67;;;46.20;;
3259;SDS011;68938;48.150;14.004;2024-01-30T06:01:59;199.53;;;96.67;;
3259;SDS011;68938;48.150;14.004;2024-01-30T06:04:26;100.63;;;50.47;;
3259;SDS011;68938;48.150;14.004;2024-01-30T06:06:53;84.30;;;50.53;;
3259;SDS011;68938;48.150;14.004;2024-01-30T06:09:20;76.10;;;45.90;;
3259;SDS011;68938;48.150;14.004;2024-01-30T06:11:47;86.57;;;51.00;;
3259;SDS011;68938;48.150;14.004;2024-01-30T06:14:14;85.40;;;49.80;;
3259;SDS011;68938;48.150;14.004;2024-01-30T06:16:41;79.67;;;45.47;;
3259;SDS011;68938;48.150;14.004;2024-01-30T06:19:07;70.63;;;45.63;;
3259;SDS011;68938;48.150;14.004;2024-01-30T06:21:34;74.80;;;41.93;;
3259;SDS011;68938;48.150;14.004;2024-01-30T06:24:02;69.63;;;39.43;;
3259;SDS011;68938;48.150;14.004;2024-01-30T06:26:29;84.10;;;43.50;;
3259;SDS011;68938;48.150;14.004;2024-01-30T06:28:56;82.80;;;42.57;;
3259;SDS011;68938;48.150;14.004;2024-01-30T06:31:23;90.33;;;47.50;;
3259;SDS011;68938;48.150;14.004;2024-01-30T06:33:50;74.77;;;44.80;;
3259;SDS011;68938;48.150;14.004;2024-01-30T06:36:17;87.13;;;44.40;;
3259;SDS011;68938;48.150;14.004;2024-01-30T06:38:44;72.50;;;43.40;;
3259;SDS011;68938;48.150;14.004;2024-01-30T06:41:11;89.83;;;44.37;;
3259;SDS011;68938;48.150;14.004;2024-01-30T06:43:38;74.53;;;41.10;;
3259;SDS011;68938;48.150;14.004;2024-01-30T06:46:05;69.97;;;42.93;;
3259;SDS011;68938;48.150;14.004;2024-01-30T06:48:32;78.30;;;44.07;;
3259;SDS011;68938;48.150;14.004;2024-01-30T06:50:59;75.20;;;41.97;;
3259;SDS011;68938;48.150;14.004;2024-01-30T06:53:26;83.77;;;45.30;;
3259;SDS011;68938;48.150;14.004;2024-01-30T06:55:53;81.10;;;49.03;;
3259;SDS011;68938;48.150;14.004;2024-01-30T06:58:20;86.13;;;43.27;;
3259;SDS011;68938;48.150;14.004;2024-01-30T07:00:47;79.20;;;41.27;;
3259;SDS011;68938;48.150;14.004;2024-01-30T07:03:14;68.23;;;44.03;;
3259;SDS011;68938;48.150;14.004;2024-01-30T07:05:40;77.37;;;42.83;;
3259;SDS011;68938;48.150;14.004;2024-01-30T07:08:07;79.60;;;46.53;;
3259;SDS011;68938;48.150;14.004;2024-01-30T07:10:34;73.67;;;42.70;;
3259;SDS011;68938;48.150;14.004;2024-01-30T07:13:01;64.93;;;42.13;;
3259;SDS011;68938;48.150;14.004;2024-01-30T07:15:29;78.87;;;42.03;;
3259;SDS011;68938;48.150;14.004;2024-01-30T07:17:55;77.03;;;44.97;;
3259;SDS011;68938;48.150;14.004;2024-01-30T07:20:22;78.43;;;42.70;;
3259;SDS011;68938;48.150;14.004;2024-01-30T07:22:49;75.00;;;41.70;;
3259;SDS011;68938;48.150;14.004;2024-01-30T07:25:16;65.53;;;42.23;;
3259;SDS011;68938;48.150;14.004;2024-01-30T07:27:43;68.30;;;41.50;;
3259;SDS011;68938;48.150;14.004;2024-01-30T07:30:10;68.77;;;41.07;;
3259;SDS011;68938;48.150;14.004;2024-01-30T07:32:37;69.00;;;42.43;;
3259;SDS011;68938;48.150;14.004;2024-01-30T07:35:04;64.63;;;42.83;;
3259;SDS011;68938;48.150;14.004;2024-01-30T07:37:34;65.73;;;42.57;;
3259;SDS011;68938;48.150;14.004;2024-01-30T07:40:02;73.87;;;40.90;;
3259;SDS011;68938;48.150;14.004;2024-01-30T07:42:30;67.43;;;41.20;;
3259;SDS011;68938;48.150;14.004;2024-01-30T07:44:57;77.50;;;40.37;;
3259;SDS011;68938;48.150;14.004;2024-01-30T07:47:24;80.70;;;42.90;;
3259;SDS011;68938;48.150;14.004;2024-01-30T07:49:52;70.87;;;44.43;;
3259;SDS011;68938;48.150;14.004;2024-01-30T07:52:19;64.93;;;40.53;;
3259;SDS011;68938;48.150;14.004;2024-01-30T07:54:46;73.20;;;41.73;;
3259;SDS011;68938;48.150;14.004;2024-01-30T07:57:13;73.13;;;43.87;;
3259;SDS011;68938;48.150;14.004;2024-01-30T07:59:41;80.83;;;42.60;;
3259;SDS011;68938;48.150;14.004;2024-01-30T08:02:10;86.63;;;44.40;;
3259;SDS011;68938;48.150;14.004;2024-01-30T08:04:40;83.77;;;45.37;;
3259;SDS011;68938;48.150;14.004;2024-01-30T08:07:08;77.30;;;44.20;;
3259;SDS011;68938;48.150;14.004;2024-01-30T08:09:35;70.37;;;43.90;;
3259;SDS011;68938;48.150;14.004;2024-01-30T08:12:02;82.53;;;45.23;;
3259;SDS011;68938;48.150;14.004;2024-01-30T08:14:30;82.43;;;44.50;;
3259;SDS011;68938;48.150;14.004;2024-01-30T08:16:57;83.27;;;46.30;;
3259;SDS011;68938;48.150;14.004;2024-01-30T08:19:24;83.20;;;50.00;;
3259;SDS011;68938;48.150;14.004;2024-01-30T08:21:51;82.30;;;47.90;;
3259;SDS011;68938;48.150;14.004;2024-01-30T08:24:18;76.00;;;46.80;;
3259;SDS011;68938;48.150;14.004;2024-01-30T08:26:45;85.10;;;42.53;;
3259;SDS011;68938;48.150;14.004;2024-01-30T08:29:12;79.47;;;44.27;;
3259;SDS011;68938;48.150;14.004;2024-01-30T08:31:39;73.20;;;46.77;;
3259;SDS011;68938;48.150;14.004;2024-01-30T08:34:06;71.87;;;45.80;;
3259;SDS011;68938;48.150;14.004;2024-01-30T08:36:33;81.43;;;44.97;;
3259;SDS011;68938;48.150;14.004;2024-01-30T08:39:00;75.40;;;44.00;;
3259;SDS011;68938;48.150;14.004;2024-01-30T08:41:31;88.53;;;45.97;;
3259;SDS011;68938;48.150;14.004;2024-01-30T08:43:58;87.23;;;55.10;;
3259;SDS011;68938;48.150;14.004;2024-01-30T08:46:25;84.83;;;48.13;;
3259;SDS011;68938;48.150;14.004;2024-01-30T08:48:52;76.03;;;48.50;;
3259;SDS011;68938;48.150;14.004;2024-01-30T08:51:19;75.20;;;47.53;;
3259;SDS011;68938;48.150;14.004;2024-01-30T08:53:46;79.23;;;47.57;;
3259;SDS011;68938;48.150;14.004;2024-01-30T08:56:13;73.80;;;45.77;;
3259;SDS011;68938;48.150;14.004;2024-01-30T08:58:40;78.93;;;42.60;;
3259;SDS011;68938;48.150;14.004;2024-01-30T09:01:07;80.53;;;48.73;;
3259;SDS011;68938;48.150;14.004;2024-01-30T09:03:34;81.10;;;49.30;;
3259;SDS011;68938;48.150;14.004;2024-01-30T09:06:01;75.47;;;48.60;;
3259;SDS011;68938;48.150;14.004;2024-01-30T09:08:28;78.07;;;47.03;;
3259;SDS011;68938;48.150;14.004;2024-01-30T09:10:55;76.50;;;47.67;;
3259;SDS011;68938;48.150;14.004;2024-01-30T09:13:22;77.60;;;49.03;;
3259;SDS011;68938;48.150;14.004;2024-01-30T09:15:49;73.07;;;44.37;;
3259;SDS011;68938;48.150;14.004;2024-01-30T09:18:16;84.43;;;47.13;;
3259;SDS011;68938;48.150;14.004;2024-01-30T09:20:43;76.43;;;47.37;;
3259;SDS011;68938;48.150;14.004;2024-01-30T09:23:10;80.57;;;48.67;;
3259;SDS011;68938;48.150;14.004;2024-01-30T09:25:37;79.63;;;45.73;;
3259;SDS011;68938;48.150;14.004;2024-01-30T09:28:04;76.43;;;47.90;;
3259;SDS011;68938;48.150;14.004;2024-01-30T09:30:32;80.90;;;46.30;;
3259;SDS011;68938;48.150;14.004;2024-01-30T09:32:59;71.93;;;42.60;;
3259;SDS011;68938;48.150;14.004;2024-01-30T09:35:26;72.20;;;44.93;;
3259;SDS011;68938;48.150;14.004;2024-01-30T09:37:53;81.07;;;47.73;;
3259;SDS011;68938;48.150;14.004;2024-01-30T09:40:20;77.90;;;45.57;;
3259;SDS011;68938;48.150;14.004;2024-01-30T09:42:47;74.03;;;43.63;;
3259;SDS011;68938;48.150;14.004;2024-01-30T09:45:21;69.73;;;45.43;;
3259;SDS011;68938;48.150;14.004;2024-01-30T09:47:51;72.93;;;45.53;;
3259;SDS011;68938;48.150;14.004;2024-01-30T09:50:19;72.10;;;45.00;;
3259;SDS011;68938;48.150;14.004;2024-01-30T09:52:47;69.83;;;43.80;;
3259;SDS011;68938;48.150;14.004;2024-01-30T09:55:14;68.07;;;41.60;;
3259;SDS011;68938;48.150;14.004;2024-01-30T09:57:41;75.00;;;43.30;;
3259;SDS011;68938;48.150;14.004;2024-01-30T10:00:09;69.57;;;42.80;;
3259;SDS011;68938;48.150;14.004;2024-01-30T10:02:38;56.17;;;40.47;;
3259;SDS011;68938;48.150;14.004;2024-01-30T10:05:05;62.20;;;40.87;;
3259;SDS011;68938;48.150;14.004;2024-01-30T10:07:32;60.87;;;42.03;;
3259;SDS011;68938;48.150;14.004;2024-01-30T10:10:00;61.07;;;40.73;;
3259;SDS011;68938;48.150;14.004;2024-01-30T10:12:27;78.17;;;40.90;;
3259;SDS011;68938;48.150;14.004;2024-01-30T10:14:56;61.07;;;40.00;;
3259;SDS011;68938;48.150;14.004;2024-01-30T10:17:24;60.70;;;39.37;;
3259;SDS011;68938;48.150;14.004;2024-01-30T10:19:59;57.90;;;36.43;;
3259;SDS011;68938;48.150;14.004;2024-01-30T10:22:27;57.20;;;38.47;;
3259;SDS011;68938;48.150;14.004;2024-01-30T10:24:55;55.90;;;38.40;;
3259;SDS011;68938;48.150;14.004;2024-01-30T10:27:25;76.23;;;43.77;;
3259;SDS011;68938;48.150;14.004;2024-01-30T10:29:53;63.67;;;40.53;;
3259;SDS011;68938;48.150;14.004;2024-01-30T10:32:20;57.63;;;38.80;;
3259;SDS011;68938;48.150;14.004;2024-01-30T10:34:48;64.83;;;37.93;;
3259;SDS011;68938;48.150;14.004;2024-01-30T10:37:15;63.10;;;41.90;;
3259;SDS011;68938;48.150;14.004;2024-01-30T10:39:44;56.57;;;35.33;;
3259;SDS011;68938;48.150;14.004;2024-01-30T10:42:17;61.70;;;37.57;;
3259;SDS011;68938;48.150;14.004;2024-01-30T10:47:35;57.20;;;39.20;;
3259;SDS011;68938;48.150;14.004;2024-01-30T10:50:03;60.80;;;38.33;;
3259;SDS011;68938;48.150;14.004;2024-01-30T10:52:30;61.70;;;41.00;;
3259;SDS011;68938;48.150;14.004;2024-01-30T10:54:59;72.73;;;42.43;;
3259;SDS011;68938;48.150;14.004;2024-01-30T10:57:27;66.50;;;36.60;;
3259;SDS011;68938;48.150;14.004;2024-01-30T10:59:58;56.53;;;38.07;;
3259;SDS011;68938;48.150;14.004;2024-01-30T11:02:27;66.43;;;39.77;;
3259;SDS011;68938;48.150;14.004;2024-01-30T11:04:55;65.87;;;39.20;;
3259;SDS011;68938;48.150;14.004;2024-01-30T11:07:26;63.70;;;37.57;;
3259;SDS011;68938;48.150;14.004;2024-01-30T11:12:25;60.20;;;38.20;;
3259;SDS011;68938;48.150;14.004;2024-01-30T11:15:03;50.90;;;33.50;;
3259;SDS011;68938;48.150;14.004;2024-01-30T11:20:18;56.93;;;35.80;;
3259;SDS011;68938;48.150;14.004;2024-01-30T11:22:48;66.97;;;39.20;;
3259;SDS011;68938;48.150;14.004;2024-01-30T11:25:19;50.77;;;33.20;;
3259;SDS011;68938;48.150;14.004;2024-01-30T11:27:57;52.10;;;35.63;;
3259;SDS011;68938;48.150;14.004;2024-01-30T11:30:28;60.83;;;34.93;;
3259;SDS011;68938;48.150;14.004;2024-01-30T11:33:09;59.17;;;37.47;;
3259;SDS011;68938;48.150;14.004;2024-01-30T11:35:41;54.97;;;37.03;;
3259;SDS011;68938;48.150;14.004;2024-01-30T11:38:10;58.47;;;35.07;;
3259;SDS011;68938;48.150;14.004;2024-01-30T11:40:40;52.80;;;34.30;;
3259;SDS011;68938;48.150;14.004;2024-01-30T11:43:08;57.90;;;38.00;;
3259;SDS011;68938;48.150;14.004;2024-01-30T11:45:36;56.97;;;36.43;;
3259;SDS011;68938;48.150;14.004;2024-01-30T11:48:04;58.93;;;36.53;;
3259;SDS011;68938;48.150;14.004;2024-01-30T11:50:33;58.90;;;36.27;;
3259;SDS011;68938;48.150;14.004;2024-01-30T11:53:01;50.60;;;34.13;;
3259;SDS011;68938;48.150;14.004;2024-01-30T11:55:29;56.70;;;35.20;;
3259;SDS011;68938;48.150;14.004;2024-01-30T11:58:00;59.80;;;41.00;;
3259;SDS011;68938;48.150;14.004;2024-01-30T12:00:28;57.70;;;35.17;;
3259;SDS011;68938;48.150;14.004;2024-01-30T12:02:55;63.00;;;38.93;;
3259;SDS011;68938;48.150;14.004;2024-01-30T12:05:23;52.83;;;34.07;;
3259;SDS011;68938;48.150;14.004;2024-01-30T12:07:51;53.80;;;34.27;;
3259;SDS011;68938;48.150;14.004;2024-01-30T12:10:18;55.23;;;35.00;;
3259;SDS011;68938;48.150;14.004;2024-01-30T12:12:46;56.00;;;34.53;;
3259;SDS011;68938;48.150;14.004;2024-01-30T12:15:15;55.63;;;34.53;;
3259;SDS011;68938;48.150;14.004;2024-01-30T12:17:43;57.10;;;35.30;;
3259;SDS011;68938;48.150;14.004;2024-01-30T12:20:11;67.27;;;41.00;;
3259;SDS011;68938;48.150;14.004;2024-01-30T12:22:46;58.47;;;35.97;;
3259;SDS011;68938;48.150;14.004;2024-01-30T12:25:15;57.67;;;35.90;;
3259;SDS011;68938;48.150;14.004;2024-01-30T12:27:46;60.90;;;40.37;;
3259;SDS011;68938;48.150;14.004;2024-01-30T12:30:15;55.70;;;37.23;;
3259;SDS011;68938;48.150;14.004;2024-01-30T12:32:43;47.90;;;32.10;;
3259;SDS011;68938;48.150;14.004;2024-01-30T12:35:12;55.03;;;33.43;;
3259;SDS011;68938;48.150;14.004;2024-01-30T12:37:42;57.10;;;37.97;;
3259;SDS011;68938;48.150;14.004;2024-01-30T12:40:11;58.00;;;35.30;;
3259;SDS011;68938;48.150;14.004;2024-01-30T12:42:40;63.13;;;39.90;;
3259;SDS011;68938;48.150;14.004;2024-01-30T12:45:08;59.97;;;37.97;;
3259;SDS011;68938;48.150;14.004;2024-01-30T12:47:36;58.97;;;37.43;;
3259;SDS011;68938;48.150;14.004;2024-01-30T12:50:04;58.40;;;38.23;;
3259;SDS011;68938;48.150;14.004;2024-01-30T12:52:31;57.80;;;36.33;;
3259;SDS011;68938;48.150;14.004;2024-01-30T12:54:58;60.17;;;38.33;;
3259;SDS011;68938;48.150;14.004;2024-01-30T12:57:25;55.10;;;34.43;;
3259;SDS011;68938;48.150;14.004;2024-01-30T12:59:52;54.80;;;36.80;;
3259;SDS011;68938;48.150;14.004;2024-01-30T13:02:19;53.47;;;34.60;;
3259;SDS011;68938;48.150;14.004;2024-01-30T13:04:46;48.17;;;31.30;;
3259;SDS011;68938;48.150;14.004;2024-01-30T13:07:16;52.80;;;33.73;;
3259;SDS011;68938;48.150;14.004;2024-01-30T13:09:43;53.33;;;30.63;;
3259;SDS011;68938;48.150;14.004;2024-01-30T13:12:10;52.00;;;32.30;;
3259;SDS011;68938;48.150;14.004;2024-01-30T13:14:36;50.17;;;32.13;;
3259;SDS011;68938;48.150;14.004;2024-01-30T13:17:03;60.80;;;33.20;;
3259;SDS011;68938;48.150;14.004;2024-01-30T13:19:30;58.20;;;34.50;;
3259;SDS011;68938;48.150;14.004;2024-01-30T13:21:58;53.77;;;34.17;;
3259;SDS011;68938;48.150;14.004;2024-01-30T13:24:24;57.53;;;29.80;;
3259;SDS011;68938;48.150;14.004;2024-01-30T13:26:51;52.17;;;33.30;;
3259;SDS011;68938;48.150;14.004;2024-01-30T13:29:18;47.20;;;31.87;;
3259;SDS011;68938;48.150;14.004;2024-01-30T13:31:45;52.57;;;33.20;;
3259;SDS011;68938;48.150;14.004;2024-01-30T13:34:12;53.03;;;33.97;;
3259;SDS011;68938;48.150;14.004;2024-01-30T13:36:39;56.03;;;32.23;;
3259;SDS011;68938;48.150;14.004;2024-01-30T13:39:06;49.53;;;30.87;;
3259;SDS011;68938;48.150;14.004;2024-01-30T13:41:33;49.07;;;31.93;;
3259;SDS011;68938;48.150;14.004;2024-01-30T13:44:00;41.37;;;28.00;;
3259;SDS011;68938;48.150;14.004;2024-01-30T13:46:27;49.23;;;31.03;;
3259;SDS011;68938;48.150;14.004;2024-01-30T13:48:54;52.07;;;32.60;;
3259;SDS011;68938;48.150;14.004;2024-01-30T13:51:21;58.17;;;32.37;;
3259;SDS011;68938;48.150;14.004;2024-01-30T13:53:48;48.40;;;32.40;;
3259;SDS011;68938;48.150;14.004;2024-01-30T13:56:15;53.40;;;33.67;;
3259;SDS011;68938;48.150;14.004;2024-01-30T13:58:42;48.90;;;30.80;;
3259;SDS011;68938;48.150;14.004;2024-01-30T14:01:09;53.37;;;31.17;;
3259;SDS011;68938;48.150;14.004;2024-01-30T14:03:36;51.87;;;31.70;;
3259;SDS011;68938;48.150;14.004;2024-01-30T14:06:03;50.83;;;30.90;;
3259;SDS011;68938;48.150;14.004;2024-01-30T14:08:31;49.57;;;32.70;;
3259;SDS011;68938;48.150;14.004;2024-01-30T14:10:58;50.97;;;33.67;;
3259;SDS011;68938;48.150;14.004;2024-01-30T14:13:25;51.27;;;29.57;;
3259;SDS011;68938;48.150;14.004;2024-01-30T14:15:52;50.70;;;29.53;;
3259;SDS011;68938;48.150;14.004;2024-01-30T14:18:19;56.40;;;32.60;;
3259;SDS011;68938;48.150;14.004;2024-01-30T14:20:46;46.83;;;27.63;;
3259;SDS011;68938;48.150;14.004;2024-01-30T14:23:13;55.23;;;29.57;;
3259;SDS011;68938;48.150;14.004;2024-01-30T14:25:40;45.83;;;30.70;;
3259;SDS011;68938;48.150;14.004;2024-01-30T14:28:07;57.40;;;34.13;;
3259;SDS011;68938;48.150;14.004;2024-01-30T14:30:34;58.23;;;33.73;;